Highland-University Park's Hourly Summary for Sunday, April 16, 2017
Hour Temp
(f)
RH
(%)
Solar Rad.
(MJ/m2)
Rainfall
(in)
Wind
(mph)
4/16/2017 12:00 AM 71 70 0 0 2.36
4/16/2017 1:00 AM 71 70 0 0 1.89
4/16/2017 2:00 AM 70 72 0 0 1.82
4/16/2017 3:00 AM 70 73 0 0 1.73
4/16/2017 4:00 AM 68 78 0 0 1.11
4/16/2017 5:00 AM 67 83 0 0 1.32
4/16/2017 6:00 AM 66 86 0 0 1.63
4/16/2017 7:00 AM 65 91 0 0 2.13
4/16/2017 8:00 AM 66 91 0.07 0 1.98
4/16/2017 9:00 AM 68 85 0.32 0 1.21
4/16/2017 10:00 AM 70 81 0.45 0 1.71
4/16/2017 11:00 AM 72 72 1 0 1.41
4/16/2017 12:00 PM 74 65 0.64 0 1.16
4/16/2017 1:00 PM 76 63 0.98 0 1.88
4/16/2017 2:00 PM 77 59 0.9 0 1.45
4/16/2017 3:00 PM 77 60 0.51 0 0.92
4/16/2017 4:00 PM 78 57 0.97 0 1.2
4/16/2017 5:00 PM 80 55 1.55 0 1.92
4/16/2017 6:00 PM 81 53 1.25 0 2.01
4/16/2017 7:00 PM 78 58 0.27 0 1.13
4/16/2017 8:00 PM 76 64 0.04 0 0.89
4/16/2017 9:00 PM 75 68 0 0 0.59
4/16/2017 10:00 PM 73 72 0 0 0
4/16/2017 11:00 PM 71 83 0 0 0.01
Data Summary 72 71 8.95 0.00 1.39